METAR AND TAF INFORMATION
METAR FOR SVSA
ADDS - METARS form results

(1014 UTC 07 August 2020)
Data provider http://aviationweather.gov/metar/data/
 
Forecast for: SVSA (SAN ANTONIO TACH, VE)
Text: TAF SVSA 071000Z 0712/0812 09005KT 9999 SCT016 TX32/0619Z TN22/0608Z
Forecast period: 1200 UTC 07 August 2020 to 1200 UTC 08 August 2020
Forecast type: FROM: standard forecast or significant change
Winds: from the E (90 degrees) at 6 MPH (5 knots; 2.6 m/s)
Visibility: 6 or more miles (10+ km)
Ceiling: at least 12,000 feet AGL
Clouds: scattered clouds at 1600 feet AGL
Weather: no significant weather forecast for this period
Text: BECMG 0712/0716 15005KT 9000 -DZ BKN100
Forecast period: 1200 UTC 07 August 2020 to 1200 UTC 08 August 2020
Forecast type: BECOMING: Conditions expected to become as follows by 1600 UTC 07 August 2020
Winds: from the SSE (150 degrees) at 6 MPH (5 knots; 2.6 m/s)
Visibility: 6 miles (9 km)
Ceiling: 10000 feet AGL
Clouds: broken clouds at 10000 feet AGL
Weather: -DZ  (light drizzle)

 AIRPORT MAP

 RUNWAY INFORMATION
Runway 17 Runway length 6135 ft Runway width 131 ft
Runway elevation 0 ft Runway displaced threshold 0 ft Runway heading 166
Runway 35 Runway length 6135 ft Runway width 131 ft
Runway elevation 0 ft Runway displaced threshold 0 ft Runway heading 346

 AIRPORT FREQUENCIES
Type GND Name GND Frequency 121.9 MHZ
Type TWR Name TWR Frequency 118.5 MHZ

 AIRPORT NEAR NAVIGATION AIDS